Time;durP1;ratioP1;P1;durP2;ratioP2;P2;SDS_P1;SDS_P2;PMS_P1;PMS_P2;Temp;Humidity;BMP_temperature;BMP_pressure;BME280_temperature;BME280_humidity;BME280_pressure;Samples;Min_cycle;Max_cycle;Signal;HPM_P1;HPM_P2
2023/09/14 00:00:32;;;;;;;5.70;5.20;;;;;;;23.28;56.91;99094.59;6868796;28;20728;-81
2023/09/14 00:03:54;;;;;;;6.20;5.60;;;;;;;23.16;57.81;99093.22;6868486;28;20249;-80
2023/09/14 00:07:17;;;;;;;5.87;5.37;;;;;;;23.57;56.63;99097.50;6871904;28;20345;-81
2023/09/14 00:10:39;;;;;;;6.33;5.73;;;;;;;22.92;58.07;99097.66;6871264;28;20694;-81
2023/09/14 00:14:00;;;;;;;6.33;5.30;;;;;;;23.20;57.62;99100.66;6870056;28;20268;-81
2023/09/14 00:17:22;;;;;;;8.23;6.10;;;;;;;23.29;57.40;99092.66;6869640;28;20352;-80
2023/09/14 00:20:43;;;;;;;8.27;5.73;;;;;;;23.24;57.24;99087.19;6867863;28;20264;-81
2023/09/14 00:24:07;;;;;;;6.60;5.90;;;;;;;22.97;57.84;99072.91;6869834;28;20230;-81
2023/09/14 00:27:28;;;;;;;6.87;6.13;;;;;;;23.39;57.19;99098.13;6869787;28;20222;-81
2023/09/14 00:30:51;;;;;;;8.13;6.13;;;;;;;23.04;58.00;99085.28;6868796;28;20265;-83
2023/09/14 00:34:13;;;;;;;6.57;5.97;;;;;;;23.14;57.91;99100.94;6871874;28;20295;-80
2023/09/14 00:37:34;;;;;;;6.53;5.83;;;;;;;23.29;57.67;99099.00;6871656;28;20301;-80
2023/09/14 00:40:57;;;;;;;9.73;6.30;;;;;;;23.29;57.44;99103.66;6870583;28;20633;-81
2023/09/14 00:44:19;;;;;;;6.67;6.07;;;;;;;23.24;57.60;99110.00;6870795;28;20355;-80
2023/09/14 00:47:42;;;;;;;9.23;6.53;;;;;;;23.34;57.29;99111.91;6871792;28;20286;-81
2023/09/14 00:51:04;;;;;;;6.73;6.13;;;;;;;23.45;57.43;99105.25;6870854;28;20255;-81
2023/09/14 00:54:25;;;;;;;8.17;6.67;;;;;;;22.82;58.28;99089.41;6870754;28;20767;-80
2023/09/14 00:57:49;;;;;;;6.83;6.23;;;;;;;22.91;58.27;99107.03;6871785;28;20292;-81
2023/09/14 01:01:14;;;;;;;8.30;6.93;;;;;;;23.02;58.39;99101.22;6870926;28;20317;-81
2023/09/14 01:04:36;;;;;;;8.47;5.97;;;;;;;23.13;58.06;99099.28;6874365;28;20201;-80
2023/09/14 01:07:57;;;;;;;7.13;6.43;;;;;;;22.74;57.92;99035.00;6874806;28;20296;-81
2023/09/14 01:11:19;;;;;;;8.70;6.80;;;;;;;23.06;58.46;99099.56;6873227;28;20316;-80
2023/09/14 01:14:44;;;;;;;9.30;7.00;;;;;;;22.91;59.11;99116.09;6873873;28;20290;-81
2023/09/14 01:18:12;;;;;;;6.60;6.00;;;;;;;23.06;58.88;99121.56;6873137;28;20197;-81
2023/09/14 01:22:03;;;;;;;9.57;7.60;;;;;;;22.45;59.99;99122.72;6869764;28;20247;-81
2023/09/14 01:25:37;;;;;;;8.03;5.80;;;;;;;22.67;59.44;99122.44;6872124;28;20268;-80
2023/09/14 01:28:59;;;;;;;7.57;6.87;;;;;;;22.78;59.01;99129.59;6870961;28;20372;-80
2023/09/14 01:32:20;;;;;;;8.93;7.23;;;;;;;22.63;59.50;99132.31;6871555;28;20230;-81
2023/09/14 01:35:53;;;;;;;8.60;7.70;;;;;;;22.62;59.08;99117.78;6870031;28;20238;-81
2023/09/14 01:39:14;;;;;;;8.27;7.50;;;;;;;22.50;59.54;99136.47;6869076;28;20278;-81
2023/09/14 01:42:39;;;;;;;8.50;7.67;;;;;;;22.52;59.81;99116.94;6868621;28;20771;-81
2023/09/14 01:46:01;;;;;;;9.93;8.97;;;;;;;22.29;59.98;99131.16;6869732;28;20209;-81
2023/09/14 01:49:23;;;;;;;10.67;7.90;;;;;;;22.38;60.08;99132.28;6869428;28;20682;-80
2023/09/14 01:52:45;;;;;;;10.27;9.10;;;;;;;22.44;59.98;99131.22;6869189;28;20308;-81
2023/09/14 01:56:07;;;;;;;9.73;8.30;;;;;;;22.02;60.82;99136.06;6870185;28;20241;-81
2023/09/14 01:59:30;;;;;;;8.70;7.90;;;;;;;21.94;61.22;99117.34;6869880;28;20229;-81
2023/09/14 02:02:51;;;;;;;10.03;8.80;;;;;;;21.96;60.50;99115.97;6869717;28;20279;-80
2023/09/14 02:06:13;;;;;;;8.87;8.03;;;;;;;22.14;60.70;99128.41;6865162;28;20260;-80
2023/09/14 02:09:34;;;;;;;9.10;8.17;;;;;;;22.05;60.40;99136.34;6870504;28;20233;-81
2023/09/14 02:12:56;;;;;;;10.23;9.20;;;;;;;22.07;60.86;99142.38;6870451;28;20733;-80
2023/09/14 02:16:19;;;;;;;10.33;9.33;;;;;;;22.29;60.70;99140.25;6871043;28;20209;-81
2023/09/14 02:19:40;;;;;;;9.20;8.20;;;;;;;22.34;60.20;99139.41;6869738;28;20249;-81
2023/09/14 02:23:02;;;;;;;10.47;8.83;;;;;;;22.21;60.47;99126.22;6874741;28;20228;-80
2023/09/14 02:26:23;;;;;;;9.87;8.63;;;;;;;22.08;60.14;99126.75;6877498;28;20224;-80
2023/09/14 02:29:45;;;;;;;14.80;8.83;;;;;;;22.03;61.31;99140.44;6877226;28;20233;-81
2023/09/14 02:33:08;;;;;;;10.80;8.70;;;;;;;22.25;60.16;99135.56;6878045;28;20249;-80
2023/09/14 02:36:30;;;;;;;11.03;8.13;;;;;;;22.20;60.16;99141.06;6890453;28;20212;-81
2023/09/14 02:39:51;;;;;;;9.87;8.87;;;;;;;22.11;59.89;99096.81;6894180;28;20241;-81
2023/09/14 02:43:12;;;;;;;10.87;8.37;;;;;;;22.23;60.55;99130.34;6885129;28;20221;-81
2023/09/14 02:46:34;;;;;;;9.33;8.43;;;;;;;22.20;60.37;99143.78;6867423;28;20237;-81
2023/09/14 02:49:58;;;;;;;9.67;8.37;;;;;;;22.05;60.90;99132.75;6867249;28;20240;-81
2023/09/14 02:53:20;;;;;;;10.40;8.03;;;;;;;22.17;60.75;99144.31;6866595;28;20364;-81
2023/09/14 02:56:41;;;;;;;11.47;7.80;;;;;;;21.70;61.87;99141.72;6867568;28;20415;-81
2023/09/14 03:00:06;;;;;;;9.73;8.50;;;;;;;22.05;60.98;99146.50;6866601;28;20315;-80
2023/09/14 03:03:27;;;;;;;12.03;9.07;;;;;;;21.88;61.07;99152.22;6866807;28;20288;-81
2023/09/14 03:06:50;;;;;;;9.77;8.50;;;;;;;21.80;61.63;99154.66;6867058;28;20304;-81
2023/09/14 03:10:12;;;;;;;9.63;8.50;;;;;;;21.66;61.57;99134.25;6865774;28;20205;-81
2023/09/14 03:13:33;;;;;;;9.13;8.20;;;;;;;22.01;61.42;99151.69;6865924;28;20831;-81
2023/09/14 03:16:55;;;;;;;9.87;8.67;;;;;;;21.96;61.34;99153.63;6866586;28;20235;-81
2023/09/14 03:20:17;;;;;;;8.90;7.60;;;;;;;21.86;60.67;99123.38;6864939;28;20224;-81
2023/09/14 03:23:40;;;;;;;10.07;8.37;;;;;;;21.99;60.62;99134.69;6866653;28;20236;-81
2023/09/14 03:27:02;;;;;;;7.50;6.80;;;;;;;22.44;59.47;99156.78;6865979;28;20692;-81
2023/09/14 03:30:23;;;;;;;9.20;7.47;;;;;;;21.98;59.59;99091.84;6864242;28;20349;-81
2023/09/14 03:33:47;;;;;;;8.10;7.30;;;;;;;22.44;59.23;99158.69;6866104;28;20292;-81
2023/09/14 03:37:08;;;;;;;8.23;7.43;;;;;;;22.21;59.17;99140.78;6867013;28;20692;-81
2023/09/14 03:40:31;;;;;;;7.87;7.00;;;;;;;22.32;59.71;99166.34;6865746;28;20287;-81
2023/09/14 03:43:53;;;;;;;7.77;7.10;;;;;;;22.33;59.34;99170.75;6868485;28;20265;-81
2023/09/14 03:47:14;;;;;;;8.20;7.50;;;;;;;22.21;59.59;99170.16;6867167;28;20348;-81
2023/09/14 03:50:36;;;;;;;7.60;6.80;;;;;;;22.22;59.38;99161.66;6864922;28;20301;-81
2023/09/14 03:53:57;;;;;;;9.53;7.03;;;;;;;21.75;59.28;99089.59;6868832;28;20252;-80
2023/09/14 03:57:21;;;;;;;7.83;7.13;;;;;;;22.05;59.52;99143.75;6866539;28;20228;-81
2023/09/14 04:00:43;;;;;;;7.57;6.70;;;;;;;22.33;59.12;99168.00;6867756;28;20234;-81
2023/09/14 04:04:04;;;;;;;7.83;7.03;;;;;;;22.27;59.29;99175.41;6869946;28;20215;-81
2023/09/14 04:07:26;;;;;;;7.40;6.20;;;;;;;22.10;59.66;99172.06;6863158;28;20290;-80
2023/09/14 04:10:50;;;;;;;7.30;6.60;;;;;;;22.30;58.97;99163.88;6868975;28;20307;-81
2023/09/14 04:14:13;;;;;;;7.03;6.30;;;;;;;22.48;58.31;99171.63;6868341;28;20216;-80
2023/09/14 04:17:35;;;;;;;6.67;5.97;;;;;;;22.59;58.00;99173.28;6870553;28;20363;-81
2023/09/14 04:20:57;;;;;;;6.67;6.07;;;;;;;22.32;58.31;99169.94;6866891;28;20327;-81
2023/09/14 04:24:18;;;;;;;7.00;6.27;;;;;;;22.11;59.04;99181.94;6867986;28;20226;-81
2023/09/14 04:27:40;;;;;;;9.77;6.03;;;;;;;22.03;58.25;99140.44;6868688;28;20667;-80
2023/09/14 04:31:04;;;;;;;7.47;6.77;;;;;;;22.30;58.01;99183.09;6866082;28;20229;-81
2023/09/14 04:34:26;;;;;;;7.43;6.03;;;;;;;22.26;58.37;99179.25;6871166;28;20244;-80
2023/09/14 04:37:47;;;;;;;7.20;6.53;;;;;;;22.26;58.47;99184.75;6869817;28;20234;-81
2023/09/14 04:41:09;;;;;;;6.27;5.47;;;;;;;22.28;58.32;99178.97;6867497;28;20253;-80
2023/09/14 04:44:31;;;;;;;7.10;6.13;;;;;;;21.95;59.26;99188.47;6866605;28;20718;-81
2023/09/14 04:47:54;;;;;;;7.93;5.87;;;;;;;21.98;59.38;99190.69;6867412;28;20267;-81
2023/09/14 04:51:15;;;;;;;6.30;5.70;;;;;;;21.60;60.51;99193.78;6857203;28;20322;-81
2023/09/14 04:54:37;;;;;;;7.17;6.47;;;;;;;21.50;60.38;99177.28;6865436;28;20255;-82
2023/09/14 04:57:58;;;;;;;10.03;6.37;;;;;;;21.96;59.25;99195.63;6867107;28;20666;-81
2023/09/14 05:01:20;;;;;;;5.13;4.63;;;;;;;22.09;58.29;99194.31;6866726;28;20256;-81
2023/09/14 05:04:42;;;;;;;5.70;5.10;;;;;;;21.73;58.60;99195.25;6866887;28;20741;-81
2023/09/14 05:08:06;;;;;;;7.67;5.50;;;;;;;22.19;57.93;99195.16;6866631;28;20236;-81
2023/09/14 05:11:27;;;;;;;5.87;5.27;;;;;;;21.88;58.15;99200.78;6863786;28;20369;-81
2023/09/14 05:14:49;;;;;;;7.40;5.57;;;;;;;21.94;58.39;99208.78;6863632;28;20308;-81
2023/09/14 05:18:10;;;;;;;5.63;4.80;;;;;;;21.93;58.54;99206.31;6864504;28;20696;-81
2023/09/14 05:21:33;;;;;;;6.10;5.53;;;;;;;21.54;58.73;99185.78;6863251;28;20296;-82
2023/09/14 05:24:55;;;;;;;5.53;5.03;;;;;;;21.39;59.64;99204.91;6851448;28;20297;-81
2023/09/14 05:28:16;;;;;;;5.83;4.70;;;;;;;21.43;58.42;99151.97;6863320;28;20297;-81
2023/09/14 05:31:38;;;;;;;8.53;5.13;;;;;;;21.63;58.13;99196.00;6861467;28;20292;-82
2023/09/14 05:34:59;;;;;;;8.87;4.90;;;;;;;21.89;57.68;99192.28;6863802;28;20642;-81
2023/09/14 05:38:22;;;;;;;6.43;5.60;;;;;;;21.84;57.97;99221.66;6863141;28;20300;-81
2023/09/14 05:41:44;;;;;;;6.60;5.97;;;;;;;21.68;58.60;99223.50;6862034;28;20765;-81
2023/09/14 05:45:07;;;;;;;6.80;5.27;;;;;;;21.50;58.50;99195.66;6863733;28;20242;-81
2023/09/14 05:48:29;;;;;;;5.97;5.33;;;;;;;21.80;57.77;99212.31;6862477;28;20217;-81
2023/09/14 05:51:51;;;;;;;6.77;5.90;;;;;;;21.58;58.59;99212.44;6862952;28;20303;-81
2023/09/14 05:55:13;;;;;;;5.83;5.23;;;;;;;21.44;58.57;99224.97;6863070;28;20237;-81
2023/09/14 05:58:35;;;;;;;6.27;5.67;;;;;;;21.63;58.21;99217.97;6862555;28;20763;-80
2023/09/14 06:01:56;;;;;;;5.93;4.93;;;;;;;21.41;57.92;99214.53;6862241;28;20320;-81
2023/09/14 06:05:18;;;;;;;6.40;4.10;;;;;;;21.50;57.25;99179.19;6859452;28;20300;-81
2023/09/14 06:08:40;;;;;;;4.97;4.47;;;;;;;21.53;57.27;99219.81;6863029;28;20252;-80
2023/09/14 06:12:03;;;;;;;5.17;4.30;;;;;;;21.40;57.73;99229.34;6862201;28;20260;-81
2023/09/14 06:15:25;;;;;;;5.27;4.77;;;;;;;21.33;57.43;99234.22;6864511;28;20579;-80
2023/09/14 06:18:47;;;;;;;6.23;4.77;;;;;;;21.24;57.67;99210.31;6864995;28;20294;-80
2023/09/14 06:22:08;;;;;;;5.67;4.87;;;;;;;21.76;57.21;99244.13;6856521;28;20333;-81
2023/09/14 06:25:30;;;;;;;7.10;5.00;;;;;;;21.27;58.40;99246.25;6861201;28;20243;-81
2023/09/14 06:28:53;;;;;;;7.53;5.20;;;;;;;21.32;57.98;99220.78;6868298;28;20216;-81
2023/09/14 06:32:15;;;;;;;7.30;4.87;;;;;;;21.53;57.88;99248.06;6872291;28;20287;-81
2023/09/14 06:35:36;;;;;;;6.53;4.90;;;;;;;21.45;57.86;99248.59;6877065;28;20668;-82
2023/09/14 06:38:58;;;;;;;8.83;4.67;;;;;;;21.67;57.95;99252.03;6868303;28;20290;-81
2023/09/14 06:42:19;;;;;;;6.80;5.23;;;;;;;21.57;57.71;99235.50;6872465;28;20235;-81
2023/09/14 06:45:43;;;;;;;6.37;5.10;;;;;;;21.02;57.67;99178.59;6878308;28;20263;-81
2023/09/14 06:49:05;;;;;;;6.00;5.17;;;;;;;21.38;58.19;99261.72;6872355;28;20209;-80
2023/09/14 06:52:26;;;;;;;6.20;5.13;;;;;;;21.43;58.27;99248.00;6883709;28;20309;-81
2023/09/14 06:55:48;;;;;;;6.83;5.40;;;;;;;21.45;58.13;99251.31;6879980;28;20210;-80
2023/09/14 06:59:10;;;;;;;7.00;5.57;;;;;;;21.74;57.60;99251.81;6870444;28;20342;-82
2023/09/14 07:02:33;;;;;;;5.90;4.97;;;;;;;21.40;57.83;99255.94;6870568;28;20753;-81
2023/09/14 07:05:54;;;;;;;6.20;5.67;;;;;;;21.54;57.02;99252.47;6867288;28;20240;-81
2023/09/14 07:09:16;;;;;;;5.73;5.03;;;;;;;21.79;57.32;99258.16;6878627;28;20245;-82
2023/09/14 07:12:37;;;;;;;6.00;5.40;;;;;;;21.50;57.65;99229.41;6878799;28;20726;-81
2023/09/14 07:15:59;;;;;;;7.93;5.97;;;;;;;21.84;56.80;99243.63;6877528;28;20304;-81
2023/09/14 07:19:26;;;;;;;7.73;5.47;;;;;;;22.05;56.48;99261.84;6879722;28;20205;-82
2023/09/14 07:22:47;;;;;;;5.53;4.97;;;;;;;22.32;56.27;99248.78;6871518;28;20239;-81
2023/09/14 07:26:09;;;;;;;6.50;4.70;;;;;;;22.34;56.38;99258.41;6888264;28;20233;-81
2023/09/14 07:29:30;;;;;;;7.80;4.93;;;;;;;22.22;55.42;99263.31;6879856;28;20205;-81
2023/09/14 07:32:52;;;;;;;8.33;5.60;;;;;;;22.37;55.70;99265.28;6895146;28;20392;-81
2023/09/14 07:36:15;;;;;;;5.97;5.03;;;;;;;22.55;55.27;99262.06;6882296;28;20204;-80
2023/09/14 07:39:36;;;;;;;8.57;5.30;;;;;;;22.17;55.68;99257.78;6870869;28;20290;-82
2023/09/14 07:42:58;;;;;;;5.70;5.20;;;;;;;21.93;56.43;99236.53;6861614;28;20265;-81
2023/09/14 07:46:19;;;;;;;5.17;4.50;;;;;;;22.72;54.47;99268.97;6866897;28;20236;-80
2023/09/14 07:49:44;;;;;;;5.83;5.23;;;;;;;22.53;55.48;99276.06;6882196;28;20312;-81
2023/09/14 07:53:07;;;;;;;6.40;4.77;;;;;;;23.27;53.29;99274.56;6880317;28;20988;-80
2023/09/14 07:56:28;;;;;;;5.67;5.10;;;;;;;22.81;52.98;99220.59;6870305;28;20216;-80
2023/09/14 07:59:50;;;;;;;6.70;4.97;;;;;;;23.31;52.95;99278.41;6874162;28;20339;-80
2023/09/14 08:03:13;;;;;;;5.70;4.97;;;;;;;23.35;53.04;99253.91;6877491;28;20230;-80
2023/09/14 08:06:35;;;;;;;5.17;4.67;;;;;;;23.87;51.90;99277.25;6881254;28;20243;-83
2023/09/14 08:09:58;;;;;;;4.67;4.27;;;;;;;23.93;51.87;99273.38;6882014;28;20306;-84
2023/09/14 08:13:19;;;;;;;7.97;4.70;;;;;;;23.91;51.15;99291.28;6871625;28;20380;-84
2023/09/14 08:16:41;;;;;;;5.83;4.67;;;;;;;23.61;52.57;99283.06;6879945;28;20363;-84
2023/09/14 08:20:03;;;;;;;5.83;5.13;;;;;;;23.88;50.77;99256.03;6876126;28;20224;-83
2023/09/14 08:23:24;;;;;;;5.70;5.07;;;;;;;24.28;50.40;99273.25;6876316;28;20242;-84
2023/09/14 08:26:47;;;;;;;4.93;4.47;;;;;;;24.35;50.58;99283.97;6876077;28;20296;-81
2023/09/14 08:30:10;;;;;;;7.27;5.40;;;;;;;24.04;51.02;99299.81;6869437;28;20300;-82
2023/09/14 08:33:31;;;;;;;5.67;5.17;;;;;;;24.06;50.53;99299.53;6880230;28;20718;-84
2023/09/14 08:36:53;;;;;;;5.90;5.30;;;;;;;24.39;49.63;99293.31;6879403;28;20303;-83
2023/09/14 08:40:17;;;;;;;6.00;4.93;;;;;;;24.59;49.64;99296.03;6878508;28;20206;-84
2023/09/14 08:43:40;;;;;;;6.00;5.17;;;;;;;24.40;50.27;99281.19;6868672;28;21034;-82
2023/09/14 08:47:03;;;;;;;6.47;5.50;;;;;;;24.49;48.63;99296.84;6866171;28;20745;-83
2023/09/14 08:50:26;;;;;;;7.87;5.60;;;;;;;24.66;48.30;99302.06;6877963;28;20801;-85
2023/09/14 08:53:49;;;;;;;6.27;5.67;;;;;;;24.53;48.55;99311.72;6864410;28;20309;-83
2023/09/14 08:57:11;;;;;;;7.43;6.20;;;;;;;24.64;48.98;99309.78;6877614;28;20294;-85
2023/09/14 09:00:35;;;;;;;8.10;7.30;;;;;;;24.52;47.71;99307.34;6869931;28;20306;-88
2023/09/14 09:03:57;;;;;;;7.13;6.40;;;;;;;23.83;49.41;99297.34;6873788;28;20265;-88
2023/09/14 09:07:18;;;;;;;8.43;6.53;;;;;;;24.00;49.39;99289.59;6880007;28;20297;-85
2023/09/14 09:10:40;;;;;;;11.20;7.20;;;;;;;23.59;51.38;99302.59;6861539;28;20567;-86
2023/09/14 09:14:02;;;;;;;6.27;5.20;;;;;;;24.29;49.47;99296.13;6863487;28;20268;-85
2023/09/14 09:17:25;;;;;;;8.23;6.23;;;;;;;23.36;51.24;99274.84;6872109;28;20251;-85
2023/09/14 09:20:46;;;;;;;6.90;6.20;;;;;;;23.64;50.92;99299.84;6872190;28;20210;-83
2023/09/14 09:24:10;;;;;;;6.50;5.73;;;;;;;23.44;51.82;99280.63;6868429;28;20240;-85
2023/09/14 09:27:32;;;;;;;6.90;6.27;;;;;;;23.86;50.51;99288.50;6862179;28;20572;-85
2023/09/14 09:30:54;;;;;;;8.00;5.50;;;;;;;24.59;48.78;99287.75;6873109;28;20253;-85
2023/09/14 09:34:22;;;;;;;6.93;6.23;;;;;;;24.65;47.92;99287.44;6868124;28;20230;-85
2023/09/14 09:37:43;;;;;;;7.03;6.00;;;;;;;24.64;48.62;99276.69;6875465;28;20211;-81
2023/09/14 09:41:09;;;;;;;6.93;6.23;;;;;;;23.75;49.95;99282.22;6878415;28;20282;-83
2023/09/14 09:44:30;;;;;;;6.47;5.87;;;;;;;23.61;50.95;99283.06;6881131;28;20301;-83
2023/09/14 09:47:52;;;;;;;6.33;5.73;;;;;;;24.29;49.91;99282.34;6872361;28;20459;-83
2023/09/14 09:51:15;;;;;;;7.33;6.63;;;;;;;24.27;49.78;99293.66;6878755;28;20605;-82
2023/09/14 09:54:37;;;;;;;7.13;5.80;;;;;;;24.02;50.23;99288.22;6872867;28;20242;-83
2023/09/14 09:57:59;;;;;;;9.60;6.73;;;;;;;24.12;49.86;99296.47;6863010;28;20217;-84
2023/09/14 10:01:21;;;;;;;7.73;7.03;;;;;;;24.39;49.50;99290.56;6862408;28;20259;-83
2023/09/14 10:04:52;;;;;;;9.23;6.27;;;;;;;24.52;48.49;99292.72;6841788;28;20207;-85
2023/09/14 10:08:19;;;;;;;6.53;5.93;;;;;;;24.44;48.92;99285.88;6835781;29;20188;-82
2023/09/14 10:11:41;;;;;;;7.20;5.83;;;;;;;24.55;47.93;99278.38;6853044;28;20331;-82
2023/09/14 10:15:04;;;;;;;6.87;6.17;;;;;;;23.46;50.42;99300.41;6862504;28;20222;-83
2023/09/14 10:18:28;;;;;;;5.50;5.00;;;;;;;24.11;49.75;99286.56;6862061;28;20679;-82
2023/09/14 10:21:50;;;;;;;5.30;4.80;;;;;;;25.21;47.54;99290.66;6861915;28;20241;-82
2023/09/14 10:25:13;;;;;;;5.17;4.67;;;;;;;25.64;46.20;99274.00;6877020;28;20374;-83
2023/09/14 10:28:35;;;;;;;5.77;4.90;;;;;;;26.02;44.86;99280.56;6872222;28;20327;-83
2023/09/14 10:31:57;;;;;;;5.50;4.87;;;;;;;25.09;46.71;99279.16;6880576;28;20256;-83
2023/09/14 10:35:19;;;;;;;7.97;5.73;;;;;;;25.39;46.40;99278.94;6863052;28;20204;-84
2023/09/14 10:38:43;;;;;;;6.40;5.27;;;;;;;24.43;47.38;99264.09;6862965;28;20790;-83
2023/09/14 10:42:06;;;;;;;6.40;5.27;;;;;;;24.68;46.45;99236.41;6863475;28;20236;-84
2023/09/14 10:45:32;;;;;;;5.87;5.20;;;;;;;25.04;46.32;99271.75;6867533;28;20270;-84
2023/09/14 10:48:55;;;;;;;5.67;5.13;;;;;;;25.40;44.73;99220.66;6868062;28;20286;-85
2023/09/14 10:52:23;;;;;;;5.20;4.70;;;;;;;26.73;42.87;99264.72;6867877;28;20268;-84
2023/09/14 10:55:45;;;;;;;5.73;5.00;;;;;;;26.95;42.44;99274.06;6868975;28;20278;-84
2023/09/14 10:59:09;;;;;;;5.10;4.27;;;;;;;27.85;39.50;99224.66;6871626;28;20274;-85
2023/09/14 11:02:56;;;;;;;8.37;4.60;;;;;;;27.62;41.25;99259.69;6867022;28;20787;-84
2023/09/14 11:06:41;;;;;;;5.50;5.00;;;;;;;27.39;40.28;99255.13;6845963;28;20750;-84
2023/09/14 11:10:04;;;;;;;5.90;5.30;;;;;;;26.58;43.51;99245.56;6867072;28;20196;-84
2023/09/14 11:13:28;;;;;;;5.60;4.47;;;;;;;27.29;41.15;99240.59;6867531;28;20240;-84
2023/09/14 11:16:53;;;;;;;6.23;5.03;;;;;;;26.49;41.94;99239.03;6864687;28;20209;-84
2023/09/14 11:20:41;;;;;;;8.17;4.23;;;;;;;25.76;42.85;99235.75;6867977;28;20216;-85
2023/09/14 11:24:03;;;;;;;4.70;4.17;;;;;;;26.03;42.83;99221.38;6869162;28;20231;-81
2023/09/14 11:27:26;;;;;;;4.67;4.20;;;;;;;26.55;41.69;99232.34;6872663;28;20209;-84
2023/09/14 11:30:48;;;;;;;5.20;4.60;;;;;;;27.55;39.67;99227.97;6868970;28;20212;-85
2023/09/14 11:34:16;;;;;;;5.07;4.57;;;;;;;27.08;41.34;99215.16;6866601;28;20239;-85
2023/09/14 11:37:37;;;;;;;4.63;4.20;;;;;;;27.95;39.94;99207.81;6866248;28;20204;-85
2023/09/14 11:40:59;;;;;;;4.47;4.07;;;;;;;28.16;38.54;99189.63;6871332;28;20346;-85
2023/09/14 11:44:21;;;;;;;5.87;4.33;;;;;;;27.66;40.40;99210.84;6847842;28;20317;-85
2023/09/14 11:47:42;;;;;;;8.33;4.93;;;;;;;27.26;40.66;99208.78;6848917;28;20301;-85
2023/09/14 11:51:07;;;;;;;5.87;4.03;;;;;;;28.34;39.08;99194.22;6865141;28;20340;-85
2023/09/14 11:54:32;;;;;;;4.40;4.00;;;;;;;27.84;39.68;99204.41;6864486;28;20206;-85
2023/09/14 11:57:53;;;;;;;6.43;4.60;;;;;;;27.17;40.70;99187.66;6864410;28;20307;-85
2023/09/14 12:01:18;;;;;;;4.30;3.90;;;;;;;27.67;40.00;99206.13;6865783;28;20283;-85
2023/09/14 12:04:40;;;;;;;5.03;3.90;;;;;;;27.62;38.96;99184.88;6876418;28;20228;-84
2023/09/14 12:08:10;;;;;;;5.60;4.80;;;;;;;27.65;40.09;99191.78;6885704;28;20292;-84
2023/09/14 12:11:39;;;;;;;7.97;4.20;;;;;;;28.64;38.17;99185.22;6884537;28;20239;-84
2023/09/14 12:15:01;;;;;;;5.50;4.20;;;;;;;28.08;39.38;99157.09;6879142;28;20240;-84
2023/09/14 12:18:38;;;;;;;5.30;4.80;;;;;;;26.90;40.60;99182.81;6877580;28;20216;-84
2023/09/14 12:21:59;;;;;;;5.30;4.20;;;;;;;28.30;38.08;99168.25;6872148;28;20657;-84
2023/09/14 12:25:22;;;;;;;5.93;4.00;;;;;;;27.43;40.09;99173.03;6877057;28;20225;-83
2023/09/14 12:28:45;;;;;;;5.43;3.33;;;;;;;28.40;39.55;99162.47;6881520;28;20291;-83
2023/09/14 12:32:07;;;;;;;3.87;3.57;;;;;;;28.14;39.34;99181.59;6884935;28;20296;-83
2023/09/14 12:35:28;;;;;;;4.87;3.60;;;;;;;27.89;39.62;99164.72;6884558;28;20212;-83
2023/09/14 12:38:50;;;;;;;5.97;3.93;;;;;;;28.44;38.44;99155.19;6901408;28;20208;-84
2023/09/14 12:42:13;;;;;;;3.97;3.57;;;;;;;27.82;38.64;99165.09;6894563;28;20237;-83
2023/09/14 12:45:35;;;;;;;4.20;3.30;;;;;;;27.42;40.46;99168.63;6886275;28;20213;-82
2023/09/14 12:49:00;;;;;;;3.80;3.37;;;;;;;26.34;40.32;99052.03;6873974;28;20213;-83
2023/09/14 12:52:22;;;;;;;3.30;3.00;;;;;;;27.65;37.87;99108.66;6872941;28;20618;-84
2023/09/14 12:55:45;;;;;;;4.73;3.43;;;;;;;27.76;38.75;99137.75;6864412;28;20212;-84
2023/09/14 12:59:08;;;;;;;4.00;2.93;;;;;;;28.76;37.65;99146.63;6869285;28;20556;-84
2023/09/14 13:02:33;;;;;;;3.87;2.70;;;;;;;27.98;38.08;99146.19;6867020;28;20258;-83
2023/09/14 13:05:58;;;;;;;4.13;3.00;;;;;;;27.88;39.14;99140.88;6865835;28;20208;-84
2023/09/14 13:09:22;;;;;;;3.67;3.30;;;;;;;28.93;36.50;99128.16;6864831;28;20209;-82
2023/09/14 13:12:50;;;;;;;3.50;3.20;;;;;;;27.90;38.69;99122.78;6864685;28;20265;-82
2023/09/14 13:16:16;;;;;;;6.40;3.30;;;;;;;27.14;39.77;99132.88;6867753;28;20215;-82
2023/09/14 13:19:37;;;;;;;4.67;3.30;;;;;;;27.91;38.40;99129.16;6866023;28;20213;-82
2023/09/14 13:22:59;;;;;;;5.97;3.40;;;;;;;28.02;38.28;99125.06;6877106;28;20375;-82
2023/09/14 13:26:21;;;;;;;3.30;3.00;;;;;;;27.98;39.17;99113.78;6870279;28;20649;-83
2023/09/14 13:29:42;;;;;;;5.57;3.00;;;;;;;27.12;38.49;99043.72;6876168;28;20209;-83
2023/09/14 13:33:06;;;;;;;3.53;3.23;;;;;;;27.81;38.78;99090.56;6893927;28;20364;-82
2023/09/14 13:36:28;;;;;;;5.37;3.20;;;;;;;27.58;38.42;99109.03;6887617;28;20208;-82
2023/09/14 13:39:49;;;;;;;4.13;3.07;;;;;;;27.98;37.92;99111.00;6868205;28;20251;-83
2023/09/14 13:43:11;;;;;;;4.10;2.80;;;;;;;28.31;38.00;99095.00;6867324;28;20732;-82
2023/09/14 13:46:32;;;;;;;2.83;2.60;;;;;;;27.76;38.59;99093.41;6885470;28;20233;-84
2023/09/14 13:49:55;;;;;;;4.27;2.60;;;;;;;27.88;39.18;99093.75;6875668;28;20209;-82
2023/09/14 13:53:17;;;;;;;2.97;2.77;;;;;;;28.17;38.14;99095.03;6882524;28;20280;-82
2023/09/14 13:56:38;;;;;;;3.60;3.00;;;;;;;27.89;38.41;99093.44;6875108;28;20208;-82
2023/09/14 14:00:01;;;;;;;5.63;2.50;;;;;;;28.00;37.40;99067.13;6872335;28;20256;-83
2023/09/14 14:03:23;;;;;;;3.53;2.47;;;;;;;27.59;37.75;99090.44;6877638;28;20301;-82
2023/09/14 14:06:46;;;;;;;2.67;2.47;;;;;;;27.91;37.06;99041.31;6876594;28;20307;-82
2023/09/14 14:10:09;;;;;;;4.97;2.70;;;;;;;27.71;37.47;99088.00;6887817;28;20220;-82
2023/09/14 14:13:30;;;;;;;3.03;2.50;;;;;;;28.28;36.66;99054.00;6873585;28;20306;-83
2023/09/14 14:16:52;;;;;;;2.77;2.50;;;;;;;28.10;36.51;99078.00;6873523;28;20694;-82
2023/09/14 14:20:14;;;;;;;3.30;2.77;;;;;;;28.23;36.92;99076.31;6871669;28;20277;-84
2023/09/14 14:23:37;;;;;;;3.37;2.77;;;;;;;28.39;37.13;99060.97;6883086;28;20692;-83
2023/09/14 14:26:59;;;;;;;4.47;2.70;;;;;;;28.52;36.37;99041.50;6876332;28;20675;-84
2023/09/14 14:30:21;;;;;;;4.03;2.67;;;;;;;27.81;37.24;99007.44;6875078;28;20344;-83
2023/09/14 14:33:42;;;;;;;3.40;2.80;;;;;;;28.07;36.93;99072.28;6884434;28;20298;-84
2023/09/14 14:37:05;;;;;;;3.17;2.80;;;;;;;27.44;37.25;99016.00;6880231;28;20221;-84
2023/09/14 14:40:27;;;;;;;3.80;2.83;;;;;;;27.41;37.73;98998.03;6879696;28;20346;-84
2023/09/14 14:43:49;;;;;;;4.10;2.80;;;;;;;27.33;37.18;98984.94;6882713;28;20286;-83
2023/09/14 14:47:10;;;;;;;2.57;2.37;;;;;;;27.78;37.08;99061.53;6887515;28;20625;-83
2023/09/14 14:50:32;;;;;;;3.80;2.60;;;;;;;27.92;37.14;99064.28;6876260;28;20252;-83
2023/09/14 14:53:54;;;;;;;4.13;2.37;;;;;;;28.05;36.65;99053.16;6873813;28;20260;-83
2023/09/14 14:57:17;;;;;;;4.30;2.70;;;;;;;28.14;36.79;99056.00;6873814;28;20313;-83
2023/09/14 15:00:38;;;;;;;4.07;2.33;;;;;;;27.33;35.47;98939.78;6865321;28;20644;-84
2023/09/14 15:04:00;;;;;;;3.07;2.60;;;;;;;27.70;35.36;99065.00;6873399;28;20312;-83
2023/09/14 15:07:21;;;;;;;2.70;2.30;;;;;;;27.22;37.43;99069.34;6879617;28;20228;-84
2023/09/14 15:10:43;;;;;;;3.53;2.40;;;;;;;27.37;36.64;99057.13;6875827;28;20300;-85
2023/09/14 15:14:07;;;;;;;3.30;2.63;;;;;;;27.66;36.66;99055.66;6872028;28;20336;-83
2023/09/14 15:17:29;;;;;;;3.37;2.50;;;;;;;28.01;35.44;99051.34;6881207;28;20774;-83
2023/09/14 15:20:50;;;;;;;2.53;2.20;;;;;;;27.85;34.90;99039.75;6883833;28;20633;-84
2023/09/14 15:24:12;;;;;;;2.50;2.30;;;;;;;28.35;33.95;99035.81;6887201;28;20323;-84
2023/09/14 15:27:34;;;;;;;2.83;2.37;;;;;;;27.48;34.45;98937.50;6884294;28;20233;-86
2023/09/14 15:30:57;;;;;;;4.77;2.63;;;;;;;27.83;35.22;99042.03;6889561;28;20216;-84
2023/09/14 15:34:18;;;;;;;3.10;2.43;;;;;;;27.56;35.83;99055.91;6880990;28;20204;-84
2023/09/14 15:37:40;;;;;;;3.70;2.43;;;;;;;27.88;34.81;99049.41;6882999;28;20221;-85
2023/09/14 15:41:02;;;;;;;2.53;2.33;;;;;;;28.12;34.47;99055.50;6872233;28;20217;-83
2023/09/14 15:44:23;;;;;;;4.23;2.57;;;;;;;27.34;35.23;99063.28;6888449;28;20235;-82
2023/09/14 15:47:47;;;;;;;3.20;2.90;;;;;;;28.02;34.86;99056.53;6879645;28;20592;-82
2023/09/14 15:51:08;;;;;;;6.83;4.20;;;;;;;28.01;34.49;99026.38;6885341;28;20225;-83
2023/09/14 15:54:31;;;;;;;12.27;7.73;;;;;;;28.31;34.48;99043.09;6871821;28;20292;-83